createdAt,value
2017-11-17T00:00:35.396Z,135.8
2017-11-17T00:01:35.490Z,135.4
2017-11-17T00:02:35.415Z,138.5
2017-11-17T00:03:35.445Z,137.1
2017-11-17T00:04:35.379Z,141.9
2017-11-17T00:05:40.565Z,142
2017-11-17T00:06:35.444Z,143.7
2017-11-17T00:07:35.467Z,145.5
2017-11-17T00:08:35.498Z,154.2
2017-11-17T00:09:35.509Z,145.5
2017-11-17T00:10:35.439Z,149.1
2017-11-17T00:11:35.503Z,152.3
2017-11-17T00:12:35.427Z,171.6
2017-11-17T00:13:35.517Z,182
2017-11-17T00:14:35.511Z,206.3
2017-11-17T00:15:55.192Z,171.8
2017-11-17T00:16:35.488Z,183.9
2017-11-17T00:17:35.436Z,186.1
2017-11-17T00:18:35.488Z,196.1
2017-11-17T00:19:35.494Z,155.2
2017-11-17T00:20:35.440Z,142.7
2017-11-17T00:21:35.502Z,138.3
2017-11-17T00:22:35.450Z,136.5
2017-11-17T00:23:35.541Z,135.7
2017-11-17T00:24:35.458Z,123.8
2017-11-17T00:25:35.495Z,117.7
2017-11-17T00:26:35.396Z,114.9
2017-11-17T00:27:35.474Z,117.1
2017-11-17T00:28:35.468Z,102.3
2017-11-17T00:29:35.426Z,95.6
2017-11-17T00:30:35.398Z,92.6
2017-11-17T00:31:35.410Z,91.2
2017-11-17T00:32:35.421Z,90.6
2017-11-17T00:33:35.515Z,90.3
2017-11-17T00:34:35.399Z,90.1
2017-11-17T00:35:35.452Z,90.1
2017-11-17T00:36:35.622Z,90
2017-11-17T00:37:35.430Z,90
2017-11-17T00:38:35.492Z,90
2017-11-17T00:39:35.484Z,90
2017-11-17T00:40:35.418Z,90
2017-11-17T00:41:35.460Z,90
2017-11-17T00:42:35.388Z,90
2017-11-17T00:43:35.556Z,90
2017-11-17T00:44:35.405Z,90
2017-11-17T00:45:35.490Z,90
2017-11-17T00:46:35.462Z,90
2017-11-17T00:47:35.479Z,90
2017-11-17T00:48:35.491Z,90
2017-11-17T00:49:35.482Z,90
2017-11-17T00:50:35.414Z,90
2017-11-17T00:51:35.412Z,90
2017-11-17T00:52:35.505Z,90
2017-11-17T00:53:35.453Z,90
2017-11-17T00:54:35.468Z,90
2017-11-17T00:55:35.402Z,90
2017-11-17T00:56:35.429Z,90
2017-11-17T00:57:35.443Z,90
2017-11-17T00:58:35.465Z,90
2017-11-17T00:59:35.462Z,90
2017-11-17T01:00:35.378Z,90
2017-11-17T01:01:35.484Z,90
2017-11-17T01:02:35.398Z,90
2017-11-17T01:03:35.515Z,90
2017-11-17T01:04:35.377Z,90
2017-11-17T01:05:35.491Z,90
2017-11-17T01:06:35.385Z,90
2017-11-17T01:07:35.388Z,90
2017-11-17T01:08:35.534Z,90
2017-11-17T01:09:35.382Z,90
2017-11-17T01:10:35.455Z,90
2017-11-17T01:11:35.390Z,90
2017-11-17T01:12:35.474Z,90
2017-11-17T01:13:35.418Z,90
2017-11-17T01:14:35.490Z,90
2017-11-17T01:15:35.396Z,90
2017-11-17T01:16:35.468Z,90
2017-11-17T01:17:35.376Z,90
2017-11-17T01:18:35.501Z,90
2017-11-17T01:19:35.443Z,90
2017-11-17T01:20:35.381Z,90
2017-11-17T01:21:35.380Z,90
2017-11-17T01:22:35.446Z,90
2017-11-17T01:23:35.459Z,90
2017-11-17T01:24:35.481Z,90
2017-11-17T01:25:55.154Z,90
2017-11-17T01:26:35.480Z,90
2017-11-17T01:27:35.417Z,90
2017-11-17T01:28:35.451Z,90
2017-11-17T01:29:35.452Z,90
2017-11-17T01:30:35.551Z,90
2017-11-17T01:31:35.384Z,90
2017-11-17T01:32:35.488Z,90
2017-11-17T01:33:35.415Z,90
2017-11-17T01:34:35.478Z,90
2017-11-17T01:35:35.392Z,90
2017-11-17T01:36:35.470Z,90
2017-11-17T01:37:35.380Z,90
2017-11-17T01:38:35.459Z,90
2017-11-17T01:39:35.385Z,90
2017-11-17T01:40:35.434Z,90
2017-11-17T01:41:35.374Z,90
2017-11-17T01:42:35.479Z,90
2017-11-17T01:43:35.463Z,90
2017-11-17T01:44:35.404Z,90
2017-11-17T01:45:35.501Z,90
2017-11-17T01:46:35.391Z,90
2017-11-17T01:47:35.446Z,90
2017-11-17T01:48:35.464Z,90
2017-11-17T01:49:35.440Z,90
2017-11-17T01:50:35.352Z,90
2017-11-17T01:51:35.449Z,90
2017-11-17T01:52:35.379Z,90
2017-11-17T01:53:35.520Z,90
2017-11-17T01:54:35.357Z,90
2017-11-17T01:55:35.387Z,90
2017-11-17T01:56:35.446Z,90
2017-11-17T01:57:35.399Z,90
2017-11-17T01:58:35.540Z,90
2017-11-17T01:59:35.384Z,90
2017-11-17T02:00:35.409Z,90
2017-11-17T02:01:35.356Z,90
2017-11-17T02:02:35.379Z,90
2017-11-17T02:03:35.519Z,90
2017-11-17T02:04:35.383Z,90
2017-11-17T02:05:35.412Z,90
2017-11-17T02:06:35.356Z,90
2017-11-17T02:07:35.482Z,90
2017-11-17T02:08:35.450Z,90
2017-11-17T02:09:35.450Z,90
2017-11-17T02:10:35.376Z,90
2017-11-17T02:11:35.414Z,90
2017-11-17T02:12:35.452Z,90
2017-11-17T02:13:35.474Z,90
2017-11-17T02:14:35.461Z,90
2017-11-17T02:15:35.372Z,90
2017-11-17T02:16:35.458Z,90
2017-11-17T02:17:35.367Z,90
2017-11-17T02:18:35.509Z,90
2017-11-17T02:19:35.359Z,90
2017-11-17T02:20:35.457Z,90
2017-11-17T02:21:35.435Z,90
2017-11-17T02:22:35.496Z,90
2017-11-17T02:23:35.484Z,90
2017-11-17T02:24:35.523Z,90
2017-11-17T02:25:35.432Z,90
2017-11-17T02:26:35.525Z,90
2017-11-17T02:27:35.430Z,90
2017-11-17T02:28:35.485Z,90
2017-11-17T02:29:35.506Z,90
2017-11-17T02:30:35.480Z,90
2017-11-17T02:31:35.430Z,90
2017-11-17T02:32:35.513Z,90
2017-11-17T02:33:35.433Z,90
2017-11-17T02:34:35.563Z,90
2017-11-17T02:35:35.435Z,90
2017-11-17T02:36:35.444Z,90
2017-11-17T02:37:35.484Z,90
2017-11-17T02:38:35.422Z,90
2017-11-17T02:39:35.672Z,90
2017-11-17T02:40:35.433Z,90
2017-11-17T02:41:35.438Z,90
2017-11-17T02:42:35.482Z,90
2017-11-17T02:43:35.417Z,90
2017-11-17T02:44:35.659Z,90
2017-11-17T02:45:35.434Z,90
2017-11-17T02:46:35.496Z,90
2017-11-17T02:47:35.529Z,90
2017-11-17T02:48:35.404Z,90
2017-11-17T02:49:35.546Z,90
2017-11-17T02:50:35.430Z,90
2017-11-17T02:51:35.428Z,90
2017-11-17T02:52:35.448Z,90
2017-11-17T02:53:35.422Z,90
2017-11-17T02:54:35.675Z,90
2017-11-17T02:55:35.402Z,90
2017-11-17T02:56:35.408Z,90
2017-11-17T02:57:35.478Z,90
2017-11-17T02:58:35.413Z,90
2017-11-17T02:59:35.551Z,90
2017-11-17T03:00:35.426Z,90
2017-11-17T03:01:35.485Z,90
2017-11-17T03:02:35.449Z,90
2017-11-17T03:03:35.464Z,90
2017-11-17T03:04:35.469Z,90
2017-11-17T03:05:35.474Z,90
2017-11-17T03:06:35.428Z,90
2017-11-17T03:07:35.486Z,90
2017-11-17T03:08:35.421Z,90
2017-11-17T03:09:37.368Z,90
2017-11-17T03:10:35.403Z,90
2017-11-17T03:11:35.424Z,90
2017-11-17T03:12:35.492Z,90
2017-11-17T03:13:35.410Z,90
2017-11-17T03:14:35.550Z,90
2017-11-17T03:15:35.381Z,90
2017-11-17T03:16:35.410Z,90
2017-11-17T03:17:35.459Z,90
2017-11-17T03:18:35.486Z,90
2017-11-17T03:19:35.459Z,90
2017-11-17T03:20:35.482Z,90
2017-11-17T03:21:35.388Z,90
2017-11-17T03:22:35.488Z,90
2017-11-17T03:23:35.430Z,90
2017-11-17T03:24:35.557Z,90
2017-11-17T03:25:35.404Z,90
2017-11-17T03:26:35.482Z,90
2017-11-17T03:27:35.428Z,90
2017-11-17T03:28:35.462Z,90
2017-11-17T03:29:35.449Z,90
2017-11-17T03:30:35.551Z,90
2017-11-17T03:31:35.489Z,90
2017-11-17T03:32:35.388Z,90
2017-11-17T03:33:35.408Z,90
2017-11-17T03:34:35.540Z,90
2017-11-17T03:35:35.399Z,90
2017-11-17T03:36:35.472Z,90
2017-11-17T03:37:35.373Z,90
2017-11-17T03:38:35.465Z,90
2017-11-17T03:39:35.471Z,90
2017-11-17T03:40:35.464Z,90
2017-11-17T03:41:35.405Z,90
2017-11-17T03:42:35.448Z,90
2017-11-17T03:43:35.384Z,90
2017-11-17T03:44:35.476Z,90
2017-11-17T03:45:35.456Z,90
2017-11-17T03:46:35.437Z,90
2017-11-17T03:47:35.397Z,90
2017-11-17T03:48:35.382Z,90
2017-11-17T03:49:35.550Z,90
2017-11-17T03:50:35.382Z,90
2017-11-17T03:51:35.455Z,90
2017-11-17T03:52:35.365Z,90
2017-11-17T03:53:35.451Z,90
2017-11-17T03:54:35.458Z,90
2017-11-17T03:55:35.471Z,90
2017-11-17T03:56:35.400Z,90
2017-11-17T03:57:35.440Z,90
2017-11-17T03:58:35.379Z,90
2017-11-17T03:59:35.518Z,90
2017-11-17T04:00:35.379Z,90
2017-11-17T04:01:35.463Z,90
2017-11-17T04:02:35.421Z,90
2017-11-17T04:03:35.452Z,90
2017-11-17T04:04:35.452Z,90
2017-11-17T04:05:35.444Z,90
2017-11-17T04:06:35.455Z,90
2017-11-17T04:07:35.375Z,90
2017-11-17T04:08:35.442Z,90
2017-11-17T04:09:35.408Z,90
2017-11-17T04:10:35.450Z,90
2017-11-17T04:11:35.372Z,90
2017-11-17T04:12:35.435Z,90
2017-11-17T04:13:35.381Z,90
2017-11-17T04:14:35.510Z,90
2017-11-17T04:15:35.371Z,90
2017-11-17T04:16:35.449Z,90
2017-11-17T04:17:35.368Z,90
2017-11-17T04:18:35.466Z,90
2017-11-17T04:19:35.450Z,90
2017-11-17T04:20:35.474Z,90
2017-11-17T04:21:35.358Z,90
2017-11-17T04:22:35.481Z,90
2017-11-17T04:23:35.358Z,90
2017-11-17T04:24:35.494Z,90
2017-11-17T04:25:35.358Z,90
2017-11-17T04:26:35.441Z,90
2017-11-17T04:27:35.368Z,90
2017-11-17T04:28:35.452Z,90
2017-11-17T04:29:35.422Z,90
2017-11-17T04:30:35.435Z,90
2017-11-17T04:31:35.348Z,90
2017-11-17T04:32:35.470Z,90
2017-11-17T04:33:35.365Z,90
2017-11-17T04:34:35.506Z,90
2017-11-17T04:35:35.355Z,90
2017-11-17T04:36:35.421Z,90
2017-11-17T04:37:35.384Z,90
2017-11-17T04:38:35.455Z,90
2017-11-17T04:39:35.422Z,90
2017-11-17T04:40:35.466Z,90
2017-11-17T04:41:35.361Z,90
2017-11-17T04:42:35.426Z,90
2017-11-17T04:43:35.383Z,90
2017-11-17T04:44:35.552Z,90
2017-11-17T04:45:35.362Z,90
2017-11-17T04:46:35.431Z,90
2017-11-17T04:47:35.365Z,90
2017-11-17T04:48:35.433Z,90
2017-11-17T04:49:35.453Z,90
2017-11-17T04:50:35.424Z,90
2017-11-17T04:51:35.374Z,90
2017-11-17T04:52:35.439Z,90
2017-11-17T04:53:35.434Z,90
2017-11-17T04:54:35.414Z,90
2017-11-17T04:55:35.473Z,90
2017-11-17T04:56:55.123Z,90
2017-11-17T04:57:35.431Z,90
2017-11-17T04:58:35.351Z,90
2017-11-17T04:59:35.523Z,90
2017-11-17T05:00:35.392Z,90
2017-11-17T05:01:35.382Z,90
2017-11-17T05:02:35.347Z,90
2017-11-17T05:03:35.363Z,90
2017-11-17T05:04:35.537Z,90
2017-11-17T05:05:35.354Z,90
2017-11-17T05:06:35.428Z,90
2017-11-17T05:07:35.383Z,90
2017-11-17T05:08:35.411Z,90
2017-11-17T05:09:35.389Z,90
2017-11-17T05:10:35.466Z,90
2017-11-17T05:11:35.336Z,90
2017-11-17T05:12:35.426Z,90
2017-11-17T05:13:35.348Z,90
2017-11-17T05:14:35.529Z,90
2017-11-17T05:15:35.363Z,90
2017-11-17T05:16:35.415Z,90
2017-11-17T05:17:35.314Z,90
2017-11-17T05:18:35.463Z,90
2017-11-17T05:19:35.388Z,90
2017-11-17T05:20:35.341Z,90
2017-11-17T05:21:35.338Z,90
2017-11-17T05:22:35.433Z,90
2017-11-17T05:23:35.325Z,90
2017-11-17T05:24:35.730Z,90
2017-11-17T05:25:35.408Z,90
2017-11-17T05:26:35.353Z,90
2017-11-17T05:27:35.542Z,90
2017-11-17T05:28:35.365Z,90
2017-11-17T05:29:35.402Z,90
2017-11-17T05:30:35.409Z,90
2017-11-17T05:31:35.349Z,90
2017-11-17T05:32:35.480Z,90
2017-11-17T05:33:35.345Z,90
2017-11-17T05:34:35.564Z,90
2017-11-17T05:35:35.394Z,90
2017-11-17T05:36:35.345Z,90
2017-11-17T05:37:37.449Z,90
2017-11-17T05:38:35.367Z,90
2017-11-17T05:39:35.416Z,90
2017-11-17T05:40:35.429Z,90
2017-11-17T05:41:35.327Z,90
2017-11-17T05:42:35.399Z,90
2017-11-17T05:43:35.335Z,90
2017-11-17T05:44:35.424Z,90
2017-11-17T05:45:35.464Z,90
2017-11-17T05:46:35.643Z,90
2017-11-17T05:47:35.506Z,90
2017-11-17T05:48:35.333Z,90
2017-11-17T05:49:35.448Z,90
2017-11-17T05:50:35.413Z,90
2017-11-17T05:51:35.363Z,90
2017-11-17T05:52:35.423Z,90
2017-11-17T05:53:35.357Z,90
2017-11-17T05:54:35.464Z,90
2017-11-17T05:55:35.307Z,90
2017-11-17T05:56:35.431Z,90
2017-11-17T05:57:35.347Z,90
2017-11-17T05:58:35.438Z,90
2017-11-17T05:59:35.376Z,90
2017-11-17T06:00:35.388Z,90
2017-11-17T06:01:36.348Z,90
2017-11-17T06:02:35.410Z,90
2017-11-17T06:03:35.324Z,90
2017-11-17T06:04:35.474Z,90
2017-11-17T06:05:35.325Z,90
2017-11-17T06:06:35.410Z,90
2017-11-17T06:07:35.317Z,90
2017-11-17T06:08:35.400Z,90
2017-11-17T06:09:35.361Z,90
2017-11-17T06:10:35.393Z,90
2017-11-17T06:11:35.310Z,90
2017-11-17T06:12:35.392Z,90
2017-11-17T06:13:35.325Z,90
2017-11-17T06:14:35.460Z,90
2017-11-17T06:15:35.340Z,90
2017-11-17T06:16:35.329Z,90
2017-11-17T06:18:10.468Z,90
2017-11-17T06:18:35.303Z,90
2017-11-17T06:19:35.386Z,90
2017-11-17T06:20:35.361Z,90
2017-11-17T06:21:35.321Z,90
2017-11-17T06:22:35.392Z,90
2017-11-17T06:23:35.311Z,90
2017-11-17T06:24:35.461Z,90
2017-11-17T06:25:35.319Z,90
2017-11-17T06:26:35.394Z,90
2017-11-17T06:27:35.336Z,90
2017-11-17T06:28:35.505Z,90
2017-11-17T06:29:35.375Z,90
2017-11-17T06:30:35.304Z,90
2017-11-17T06:31:35.399Z,90
2017-11-17T06:32:35.291Z,90
2017-11-17T06:33:35.312Z,90
2017-11-17T06:34:35.423Z,90
2017-11-17T06:35:35.311Z,90
2017-11-17T06:36:36.915Z,90
2017-11-17T06:37:35.577Z,90
2017-11-17T06:38:36.743Z,90
2017-11-17T06:39:36.117Z,90
2017-11-17T06:40:35.792Z,90
2017-11-17T06:41:36.910Z,90
2017-11-17T06:42:35.548Z,90
2017-11-17T06:43:36.378Z,90
2017-11-17T06:44:37.447Z,90
2017-11-17T06:45:39.017Z,90
2017-11-17T06:46:37.866Z,90
2017-11-17T06:47:35.451Z,90
2017-11-17T06:48:35.643Z,90
2017-11-17T06:49:35.659Z,90
2017-11-17T06:50:35.853Z,90
2017-11-17T06:51:35.992Z,90
2017-11-17T06:52:35.811Z,90
2017-11-17T06:53:35.889Z,90
2017-11-17T06:54:35.478Z,90
2017-11-17T06:55:36.769Z,90
2017-11-17T06:56:36.007Z,90
2017-11-17T06:57:35.893Z,90
2017-11-17T06:58:36.054Z,90
2017-11-17T06:59:36.386Z,90
2017-11-17T07:00:38.316Z,90
2017-11-17T07:01:38.461Z,90
2017-11-17T07:02:37.580Z,90
2017-11-17T07:03:36.620Z,90
2017-11-17T07:04:35.363Z,90
2017-11-17T07:05:36.870Z,90
2017-11-17T07:06:35.965Z,90
2017-11-17T07:07:36.146Z,90
2017-11-17T07:08:38.479Z,90
2017-11-17T07:09:35.572Z,90
2017-11-17T07:10:35.626Z,90
2017-11-17T07:11:35.557Z,90
2017-11-17T07:12:35.768Z,90
2017-11-17T07:13:35.902Z,90
2017-11-17T07:14:35.520Z,90
2017-11-17T07:15:36.319Z,90
2017-11-17T07:16:35.763Z,90
2017-11-17T07:17:35.417Z,90
2017-11-17T07:18:35.272Z,90
2017-11-17T07:19:35.690Z,90
2017-11-17T07:20:36.929Z,90
2017-11-17T07:21:35.649Z,90
2017-11-17T07:22:37.901Z,90
2017-11-17T07:23:35.966Z,90
2017-11-17T07:24:36.894Z,90
2017-11-17T07:25:35.579Z,90
2017-11-17T07:26:36.022Z,90
2017-11-17T07:27:35.311Z,90
2017-11-17T07:28:35.288Z,90
2017-11-17T07:29:36.847Z,90
2017-11-17T07:30:35.305Z,90
2017-11-17T07:31:36.108Z,90
2017-11-17T07:32:35.660Z,90
2017-11-17T07:33:35.605Z,90
2017-11-17T07:34:35.849Z,90
2017-11-17T07:35:35.372Z,90
2017-11-17T07:36:36.265Z,90
2017-11-17T07:37:35.595Z,90
2017-11-17T07:38:35.924Z,90
2017-11-17T07:39:39.475Z,90
2017-11-17T07:40:37.987Z,90
2017-11-17T07:41:36.111Z,90
2017-11-17T07:42:37.799Z,90
2017-11-17T07:43:35.589Z,90
2017-11-17T07:44:35.736Z,90
2017-11-17T07:45:35.921Z,90
2017-11-17T07:46:36.089Z,90
2017-11-17T07:47:35.461Z,90
2017-11-17T07:48:35.684Z,90
2017-11-17T07:49:35.615Z,90
2017-11-17T07:50:35.657Z,90
2017-11-17T07:51:35.418Z,90
2017-11-17T07:52:35.807Z,90
2017-11-17T07:53:35.272Z,90
2017-11-17T07:54:39.319Z,90
2017-11-17T07:55:41.673Z,90
2017-11-17T07:56:41.793Z,90
2017-11-17T07:57:40.076Z,90
2017-11-17T07:58:38.199Z,90
2017-11-17T07:59:36.787Z,90
2017-11-17T08:00:35.326Z,90
2017-11-17T08:01:35.412Z,90
2017-11-17T08:02:35.281Z,90
2017-11-17T08:03:35.266Z,90
2017-11-17T08:04:35.272Z,90
2017-11-17T08:05:35.394Z,90
2017-11-17T08:06:35.343Z,90
2017-11-17T08:07:35.385Z,90
2017-11-17T08:08:35.250Z,90
2017-11-17T08:09:35.342Z,90
2017-11-17T08:10:35.294Z,90
2017-11-17T08:11:35.325Z,90
2017-11-17T08:12:35.310Z,90
2017-11-17T08:13:35.351Z,90
2017-11-17T08:14:35.267Z,90
2017-11-17T08:15:35.334Z,90
2017-11-17T08:16:35.263Z,90
2017-11-17T08:17:35.391Z,90
2017-11-17T08:18:35.251Z,90
2017-11-17T08:19:35.346Z,90
2017-11-17T08:20:55.081Z,90
2017-11-17T08:21:35.271Z,90
2017-11-17T08:22:35.406Z,90
2017-11-17T08:23:35.234Z,90
2017-11-17T08:24:35.339Z,90
2017-11-17T08:26:09.849Z,90
2017-11-17T08:26:35.288Z,90
2017-11-17T08:27:35.298Z,90
2017-11-17T08:28:35.256Z,90
2017-11-17T08:29:35.342Z,90
2017-11-17T08:30:35.261Z,90
2017-11-17T08:31:35.245Z,90
2017-11-17T08:32:35.405Z,90
2017-11-17T08:33:35.261Z,90
2017-11-17T08:34:35.319Z,90
2017-11-17T08:35:35.270Z,90
2017-11-17T08:36:55.094Z,90
2017-11-17T08:37:35.318Z,90
2017-11-17T08:38:35.320Z,90
2017-11-17T08:39:35.295Z,90
2017-11-17T08:40:35.343Z,90
2017-11-17T08:41:35.245Z,90
2017-11-17T08:42:35.371Z,90
2017-11-17T08:43:35.264Z,90
2017-11-17T08:44:35.318Z,90
2017-11-17T08:45:38.225Z,90
2017-11-17T08:46:35.330Z,90
2017-11-17T08:47:35.300Z,90
2017-11-17T08:48:35.346Z,90
2017-11-17T08:49:35.265Z,90
2017-11-17T08:50:35.351Z,90
2017-11-17T08:51:35.258Z,90
2017-11-17T08:52:35.401Z,90
2017-11-17T08:53:35.330Z,90
2017-11-17T08:54:35.242Z,90
2017-11-17T08:55:35.309Z,90
2017-11-17T08:56:35.262Z,90
2017-11-17T08:57:35.381Z,90
2017-11-17T08:58:35.318Z,90
2017-11-17T08:59:35.245Z,90
2017-11-17T09:00:35.248Z,90
2017-11-17T09:01:35.335Z,90
2017-11-17T09:02:35.344Z,90
2017-11-17T09:03:35.314Z,90
2017-11-17T09:04:35.253Z,90
2017-11-17T09:05:35.352Z,90
2017-11-17T09:06:35.245Z,90
2017-11-17T09:07:35.366Z,90
2017-11-17T09:08:35.223Z,90
2017-11-17T09:09:35.311Z,90
2017-11-17T09:10:35.231Z,90
2017-11-17T09:11:35.331Z,90
2017-11-17T09:12:35.375Z,90
2017-11-17T09:13:35.250Z,90
2017-11-17T09:14:35.299Z,90
2017-11-17T09:15:35.262Z,90
2017-11-17T09:16:35.329Z,90
2017-11-17T09:17:35.280Z,90
2017-11-17T09:18:35.257Z,90
2017-11-17T09:19:35.303Z,90
2017-11-17T09:20:35.247Z,90
2017-11-17T09:21:35.302Z,90
2017-11-17T09:22:35.424Z,90
2017-11-17T09:23:35.330Z,90
2017-11-17T09:24:35.233Z,90
2017-11-17T09:25:35.298Z,90
2017-11-17T09:26:35.236Z,90
2017-11-17T09:27:35.392Z,90
2017-11-17T09:28:35.252Z,90
2017-11-17T09:29:35.301Z,90
2017-11-17T09:30:35.250Z,90
2017-11-17T09:31:35.329Z,90
2017-11-17T09:32:35.294Z,90
2017-11-17T09:33:35.330Z,90
2017-11-17T09:34:35.225Z,90
2017-11-17T09:35:35.331Z,90
2017-11-17T09:36:35.241Z,90
2017-11-17T09:37:35.428Z,90
2017-11-17T09:38:35.220Z,90
2017-11-17T09:39:35.318Z,90
2017-11-17T09:40:35.281Z,90
2017-11-17T09:41:35.295Z,90
2017-11-17T09:42:35.290Z,90
2017-11-17T09:43:35.281Z,90
2017-11-17T09:44:35.209Z,90
2017-11-17T09:45:35.330Z,90
2017-11-17T09:46:35.235Z,90
2017-11-17T09:47:35.358Z,90
2017-11-17T09:48:35.240Z,90
2017-11-17T09:49:35.345Z,90
2017-11-17T09:50:35.225Z,90
2017-11-17T09:51:35.298Z,90
2017-11-17T09:52:35.294Z,90
2017-11-17T09:53:35.320Z,90
2017-11-17T09:54:35.242Z,90
2017-11-17T09:55:35.309Z,90
2017-11-17T09:56:35.223Z,90
2017-11-17T09:57:35.367Z,90
2017-11-17T09:58:35.223Z,90
2017-11-17T09:59:35.315Z,90
2017-11-17T10:00:35.223Z,90
2017-11-17T10:01:35.220Z,90
2017-11-17T10:02:35.361Z,90
2017-11-17T10:03:35.214Z,90
2017-11-17T10:04:35.302Z,90
2017-11-17T10:05:35.264Z,90
2017-11-17T10:06:35.285Z,90
2017-11-17T10:07:35.265Z,90
2017-11-17T10:08:35.279Z,90
2017-11-17T10:09:35.240Z,90
2017-11-17T10:10:35.205Z,90
2017-11-17T10:11:35.230Z,90
2017-11-17T10:12:35.396Z,90
2017-11-17T10:13:35.212Z,90
2017-11-17T10:14:35.308Z,90
2017-11-17T10:15:35.230Z,90
2017-11-17T10:16:35.309Z,90
2017-11-17T10:17:35.381Z,90
2017-11-17T10:18:35.305Z,90
2017-11-17T10:19:35.220Z,90
2017-11-17T10:20:35.283Z,90
2017-11-17T10:21:35.223Z,90
2017-11-17T10:22:35.377Z,90
2017-11-17T10:23:35.223Z,90
2017-11-17T10:24:35.294Z,90
2017-11-17T10:25:35.231Z,90
2017-11-17T10:26:35.287Z,90
2017-11-17T10:27:35.257Z,90
2017-11-17T10:28:35.306Z,90
2017-11-17T10:29:35.225Z,90
2017-11-17T10:30:35.262Z,90
2017-11-17T10:31:35.202Z,90
2017-11-17T10:32:35.359Z,90
2017-11-17T10:33:35.267Z,90
2017-11-17T10:34:35.308Z,90
2017-11-17T10:35:35.219Z,90
2017-11-17T10:36:35.375Z,90
2017-11-17T10:37:35.286Z,90
2017-11-17T10:38:35.274Z,90
2017-11-17T10:39:35.299Z,90
2017-11-17T10:40:35.191Z,90
2017-11-17T10:41:35.199Z,90
2017-11-17T10:42:35.239Z,90
2017-11-17T10:43:35.344Z,90
2017-11-17T10:44:35.242Z,90
2017-11-17T10:45:35.216Z,90
2017-11-17T10:46:35.211Z,90
2017-11-17T10:47:35.203Z,90
2017-11-17T10:48:35.269Z,90
2017-11-17T10:49:35.242Z,90
2017-11-17T10:50:35.224Z,90
2017-11-17T10:51:35.217Z,90
2017-11-17T10:52:35.225Z,90
2017-11-17T10:53:35.278Z,90
2017-11-17T10:54:35.209Z,90
2017-11-17T10:55:35.207Z,90
2017-11-17T10:56:35.227Z,90
2017-11-17T10:57:35.239Z,90
2017-11-17T10:58:35.276Z,90
2017-11-17T10:59:35.195Z,90
2017-11-17T11:00:35.205Z,90
2017-11-17T11:01:35.236Z,90
2017-11-17T11:02:35.202Z,90
2017-11-17T11:03:35.322Z,90
2017-11-17T11:04:35.238Z,90
2017-11-17T11:05:35.267Z,90
2017-11-17T11:06:35.216Z,90
2017-11-17T11:07:35.209Z,90
2017-11-17T11:08:35.372Z,90
2017-11-17T11:09:35.272Z,90
2017-11-17T11:10:35.243Z,90
2017-11-17T11:11:35.220Z,90
2017-11-17T11:12:35.209Z,90
2017-11-17T11:13:35.287Z,90
2017-11-17T11:14:35.258Z,90
2017-11-17T11:15:35.252Z,90
2017-11-17T11:16:35.218Z,90
2017-11-17T11:17:35.248Z,90
2017-11-17T11:18:35.290Z,90
2017-11-17T11:19:35.211Z,90
2017-11-17T11:20:35.208Z,90
2017-11-17T11:21:35.211Z,90
2017-11-17T11:22:35.226Z,90
2017-11-17T11:23:35.275Z,90
2017-11-17T11:24:35.227Z,90
2017-11-17T11:25:35.198Z,90
2017-11-17T11:26:35.213Z,90
2017-11-17T11:27:35.195Z,90
2017-11-17T11:28:35.264Z,90
2017-11-17T11:29:35.205Z,90
2017-11-17T11:30:35.190Z,90
2017-11-17T11:31:35.214Z,90
2017-11-17T11:32:35.199Z,90
2017-11-17T11:33:35.354Z,90
2017-11-17T11:34:35.226Z,90
2017-11-17T11:35:35.208Z,90
2017-11-17T11:36:35.207Z,90
2017-11-17T11:37:35.229Z,90
2017-11-17T11:38:35.319Z,90
2017-11-17T11:39:35.213Z,90
2017-11-17T11:40:35.205Z,90
2017-11-17T11:41:35.202Z,90
2017-11-17T11:42:35.215Z,90
2017-11-17T11:43:35.267Z,90
2017-11-17T11:44:35.227Z,90
2017-11-17T11:45:35.324Z,90
2017-11-17T11:46:54.991Z,90
2017-11-17T11:47:35.208Z,90
2017-11-17T11:48:35.235Z,90
2017-11-17T11:49:35.209Z,90
2017-11-17T11:50:35.183Z,90
2017-11-17T11:51:35.258Z,90
2017-11-17T11:52:35.235Z,90
2017-11-17T11:53:35.259Z,90
2017-11-17T11:54:35.184Z,90
2017-11-17T11:55:35.208Z,90
2017-11-17T11:56:35.205Z,90
2017-11-17T11:57:35.242Z,90
2017-11-17T11:58:35.263Z,90
2017-11-17T11:59:35.186Z,90
2017-11-17T12:00:35.233Z,90
2017-11-17T12:01:35.214Z,90
2017-11-17T12:02:35.183Z,90
2017-11-17T12:03:35.250Z,90
2017-11-17T12:04:35.248Z,90
2017-11-17T12:05:35.177Z,90
2017-11-17T12:06:35.261Z,90
2017-11-17T12:07:35.187Z,90
2017-11-17T12:08:35.267Z,90
2017-11-17T12:09:35.181Z,90
2017-11-17T12:10:35.181Z,90
2017-11-17T12:11:35.177Z,90
2017-11-17T12:12:35.359Z,90
2017-11-17T12:13:35.252Z,90
2017-11-17T12:14:35.200Z,90
2017-11-17T12:15:35.201Z,90
2017-11-17T12:16:35.250Z,90
2017-11-17T12:17:35.237Z,90
2017-11-17T12:18:35.266Z,90
2017-11-17T12:19:35.214Z,90
2017-11-17T12:20:35.198Z,90
2017-11-17T12:21:35.183Z,90
2017-11-17T12:22:35.189Z,90
2017-11-17T12:23:35.228Z,90
2017-11-17T12:24:35.175Z,90
2017-11-17T12:25:35.196Z,90
2017-11-17T12:26:35.168Z,90
2017-11-17T12:27:35.261Z,90
2017-11-17T12:28:35.385Z,90
2017-11-17T12:29:35.187Z,90
2017-11-17T12:30:35.211Z,90
2017-11-17T12:31:35.180Z,90
2017-11-17T12:32:35.169Z,90
2017-11-17T12:33:38.207Z,90
2017-11-17T12:34:35.167Z,90
2017-11-17T12:35:35.217Z,90
2017-11-17T12:36:35.177Z,90
2017-11-17T12:37:35.176Z,90
2017-11-17T12:38:35.170Z,90
2017-11-17T12:39:35.238Z,90
2017-11-17T12:40:35.297Z,90
2017-11-17T12:41:35.221Z,90
2017-11-17T12:42:35.197Z,90
2017-11-17T12:43:35.184Z,90
2017-11-17T12:44:35.229Z,90
2017-11-17T12:45:35.193Z,90
2017-11-17T12:46:35.213Z,90
2017-11-17T12:47:35.212Z,90
2017-11-17T12:48:35.233Z,90
2017-11-17T12:49:35.228Z,90
2017-11-17T12:50:35.216Z,90
2017-11-17T12:51:35.309Z,90
2017-11-17T12:52:35.207Z,90
2017-11-17T12:53:35.204Z,90
2017-11-17T12:54:35.238Z,90
2017-11-17T12:55:35.199Z,90
2017-11-17T12:56:35.170Z,90
2017-11-17T12:57:35.170Z,90
2017-11-17T12:58:35.167Z,90
2017-11-17T12:59:35.257Z,90
2017-11-17T13:00:35.206Z,90
2017-11-17T13:01:35.186Z,90
2017-11-17T13:02:35.181Z,90
2017-11-17T13:03:35.148Z,90
2017-11-17T13:04:35.324Z,90
2017-11-17T13:05:35.250Z,90
2017-11-17T13:06:35.190Z,90
2017-11-17T13:07:35.165Z,90
2017-11-17T13:08:35.183Z,90
2017-11-17T13:09:35.261Z,90
2017-11-17T13:10:35.189Z,90
2017-11-17T13:11:35.167Z,90
2017-11-17T13:12:35.162Z,90
2017-11-17T13:13:35.176Z,90
2017-11-17T13:14:35.225Z,90
2017-11-17T13:15:35.189Z,90
2017-11-17T13:16:35.213Z,90
2017-11-17T13:17:35.213Z,90
2017-11-17T13:18:37.444Z,90
2017-11-17T13:19:39.758Z,90
2017-11-17T13:20:35.726Z,90
2017-11-17T13:21:35.372Z,90
2017-11-17T13:22:35.432Z,90
2017-11-17T13:23:35.545Z,90
2017-11-17T13:24:35.563Z,90
2017-11-17T13:25:35.187Z,90
2017-11-17T13:26:37.439Z,90
2017-11-17T13:27:35.670Z,90
2017-11-17T13:28:37.486Z,90
2017-11-17T13:29:35.261Z,90
2017-11-17T13:30:39.557Z,90
2017-11-17T13:31:35.178Z,90
2017-11-17T13:32:35.472Z,90
2017-11-17T13:33:38.462Z,90
2017-11-17T13:34:35.865Z,90
2017-11-17T13:35:35.172Z,90
2017-11-17T13:36:35.176Z,90
2017-11-17T13:37:35.156Z,90
2017-11-17T13:38:35.185Z,90
2017-11-17T13:39:35.269Z,90
2017-11-17T13:40:35.256Z,90
2017-11-17T13:41:37.400Z,90
2017-11-17T13:42:35.218Z,90
2017-11-17T13:43:35.226Z,90
2017-11-17T13:44:35.214Z,90
2017-11-17T13:45:35.182Z,90
2017-11-17T13:46:35.188Z,90
2017-11-17T13:47:35.210Z,90
2017-11-17T13:48:35.172Z,90
2017-11-17T13:49:35.238Z,90
2017-11-17T13:50:35.153Z,90
2017-11-17T13:51:35.138Z,90
2017-11-17T13:52:35.176Z,90
2017-11-17T13:53:35.219Z,90
2017-11-17T13:54:35.267Z,90
2017-11-17T13:55:35.159Z,90
2017-11-17T13:56:35.167Z,90
2017-11-17T13:57:35.185Z,90
2017-11-17T13:58:35.156Z,90
2017-11-17T13:59:35.228Z,90
2017-11-17T14:00:35.271Z,90
2017-11-17T14:01:35.183Z,90
2017-11-17T14:02:35.146Z,90
2017-11-17T14:03:35.151Z,90
2017-11-17T14:04:35.229Z,90
2017-11-17T14:05:36.226Z,90
2017-11-17T14:06:35.440Z,90
2017-11-17T14:07:35.165Z,90
2017-11-17T14:08:35.160Z,90
2017-11-17T14:09:35.163Z,90
2017-11-17T14:10:35.289Z,90
2017-11-17T14:11:35.194Z,90
2017-11-17T14:12:35.158Z,90